Huntersville, NC

2:56 PM EDT on May 27, 2015 (GMT -0400)
Huntersville (Crown Ridge) | | Change Station
CLOSE
Current Station
Personal Weather Station
Location: Huntersville, NC
Elevation: 758 ft
Nearby Weather Stations

Elev 758 ft 35.42 °N, 80.83 °W | Updated 5 seconds ago

Overcast
Overcast
76.3 °F
Feels Like 76 °F
N
0.0
Wind Variable Wind from North
Gusts 0.0 mph

Today
High -- | Low -- °F
--% Chance of Precip.
Yesterday
High -- | Low -- °F
Precip. -- in
6:11 AM 8:29 PM
Waxing Gibbous, 69% visible
Pressure 30.27 in
Visibility 10.0 miles
Clouds Mostly Cloudy 2600 ft
Heat Index 76 °F
Dew Point 76 °F
Humidity 100%
Rainfall 6.08 in
Snow Depth Not available.
UV 6 out of 12
Pollen 3.00 out of 12
Air Quality Not available.
Flu Activity No Activity
METAR KJQF 271750Z 25007KT 10SM BKN026 26/19 A3027

More Conditions Fewer Conditions

Pressure 30.27 in
Visibility 10.0 miles
Clouds Mostly Cloudy 2600 ft
Heat Index 76 °F
Dew Point 76 °F
Humidity 100%
Rainfall 6.08 in
Snow Depth Not available.
UV 6 out of 12
Pollen 3.00 out of 12
Air Quality Not available.
Flu Activity No Activity
METAR KJQF 271750Z 25007KT 10SM BKN026 26/19 A3027

More Conditions Fewer Conditions

10-Day Weather Forecast

Almanac

Astronomy

May. 27, 2015 Rise Set
Actual Time
Civil Twilight
Nautical Twilight
Astronomical Twilight
Moon
Length of Visible Light
Length of Day
Tomorrow will be .
, % of the Moon is Illuminated

Today's Extremes

State Highs State Lows

Community

WunderPhotos

Upload Photos

1,824,757 photos uploaded!

WunderBlogs® & News

Nearby

Air Quality

  Air Quality AQ Index Pollutant
Not available.

Snow Depth

Station Depth Elevation

Earthquake Activity

City Distance Mag. Time & Date
Minimum magnitude displayed is 2.5.

Coastal Water Temperatures

Place Temperature

Stations

Nearby Weather Stations

Station Location Temp. Windchill Dew Point Humidity Wind Precip. Elev Updated Type